createdAt,value
2019-01-24T00:02:54.419Z,47.07
2019-01-24T00:05:58.515Z,45.93
2019-01-24T00:09:03.764Z,47.53
2019-01-24T00:12:07.969Z,43.57
2019-01-24T00:15:12.496Z,46.07
2019-01-24T00:18:16.653Z,41.87
2019-01-24T00:21:20.874Z,45.03
2019-01-24T00:24:25.040Z,44.83
2019-01-24T00:27:29.235Z,41.47
2019-01-24T00:30:33.464Z,41.23
2019-01-24T00:33:38.123Z,43.57
2019-01-24T00:36:42.312Z,43.07
2019-01-24T00:39:46.511Z,43.03
2019-01-24T00:42:50.604Z,46.63
2019-01-24T00:45:54.739Z,41.67
2019-01-24T00:48:58.863Z,43.50
2019-01-24T00:52:02.988Z,43.73
2019-01-24T00:55:09.218Z,42.50
2019-01-24T00:58:13.414Z,44.30
2019-01-24T01:01:17.578Z,42.83
2019-01-24T01:04:22.145Z,45.67
2019-01-24T01:07:26.278Z,41.23
2019-01-24T01:10:30.499Z,44.60
2019-01-24T01:13:34.703Z,49.37
2019-01-24T01:16:38.839Z,40.97
2019-01-24T01:19:42.943Z,40.13
2019-01-24T01:22:47.436Z,40.37
2019-01-24T01:25:51.544Z,39.97
2019-01-24T01:28:55.737Z,41.63
2019-01-24T01:31:59.907Z,38.33
2019-01-24T01:35:04.040Z,40.10
2019-01-24T01:38:08.132Z,37.83
2019-01-24T01:41:12.243Z,40.63
2019-01-24T01:44:16.423Z,36.03
2019-01-24T01:47:20.607Z,38.97
2019-01-24T01:50:25.364Z,40.60
2019-01-24T01:53:29.501Z,47.67
2019-01-24T01:56:33.599Z,35.40
2019-01-24T01:59:37.728Z,35.23
2019-01-24T02:02:41.870Z,37.43
2019-01-24T02:05:46.179Z,33.60
2019-01-24T02:08:50.278Z,38.20
2019-01-24T02:11:54.402Z,36.13
2019-01-24T02:14:58.571Z,39.07
2019-01-24T02:18:02.784Z,38.07
2019-01-24T02:21:06.868Z,32.73
2019-01-24T02:24:10.993Z,34.30
2019-01-24T02:27:15.162Z,32.73
2019-01-24T02:30:24.439Z,33.83
2019-01-24T02:33:28.608Z,38.13
2019-01-24T02:36:32.942Z,35.77
2019-01-24T02:39:37.041Z,31.27
2019-01-24T02:42:41.163Z,36.70
2019-01-24T02:45:45.263Z,35.73
2019-01-24T02:48:49.395Z,33.10
2019-01-24T02:51:53.619Z,34.10
2019-01-24T02:54:57.791Z,40.03
2019-01-24T02:58:01.887Z,34.60
2019-01-24T03:01:05.997Z,32.10
2019-01-24T03:04:10.131Z,40.83
2019-01-24T03:07:14.389Z,32.37
2019-01-24T03:10:18.554Z,33.70
2019-01-24T03:13:22.740Z,31.93
2019-01-24T03:16:26.845Z,31.73
2019-01-24T03:19:30.909Z,28.70
2019-01-24T03:22:35.009Z,30.00
2019-01-24T03:25:39.153Z,28.47
2019-01-24T03:28:43.313Z,25.90
2019-01-24T03:31:47.449Z,26.67
2019-01-24T03:34:51.584Z,26.30
2019-01-24T03:37:55.923Z,30.17
2019-01-24T03:41:00.083Z,28.73
2019-01-24T03:44:04.149Z,29.90
2019-01-24T03:47:08.297Z,31.60
2019-01-24T03:50:14.763Z,28.70
2019-01-24T03:53:18.924Z,29.40
2019-01-24T03:56:22.988Z,27.70
2019-01-24T03:59:27.102Z,28.27
2019-01-24T04:02:31.281Z,29.17
2019-01-24T04:05:35.435Z,33.10
2019-01-24T04:08:39.683Z,30.10
2019-01-24T04:11:43.861Z,34.93
2019-01-24T04:14:48.030Z,30.20
2019-01-24T04:17:52.122Z,28.60
2019-01-24T04:20:56.326Z,30.17
2019-01-24T04:24:00.496Z,30.27
2019-01-24T04:27:04.678Z,31.87
2019-01-24T04:30:11.699Z,30.60
2019-01-24T04:33:15.808Z,34.20
2019-01-24T04:36:19.966Z,34.20
2019-01-24T04:39:24.309Z,34.97
2019-01-24T04:42:28.460Z,33.97
2019-01-24T04:45:32.591Z,29.50
2019-01-24T04:48:36.675Z,32.53
2019-01-24T04:51:40.785Z,35.73
2019-01-24T04:54:44.876Z,29.00
2019-01-24T04:57:49.300Z,37.50
2019-01-24T05:00:53.456Z,34.90
2019-01-24T05:03:57.579Z,33.67
2019-01-24T05:07:01.750Z,31.60
2019-01-24T05:10:06.520Z,28.17
2019-01-24T05:13:10.611Z,31.57
2019-01-24T05:16:14.813Z,34.80
2019-01-24T05:19:18.984Z,29.57
2019-01-24T05:22:23.171Z,30.73
2019-01-24T05:25:27.264Z,27.73
2019-01-24T05:28:31.400Z,28.37
2019-01-24T05:31:35.553Z,32.37
2019-01-24T05:34:39.668Z,32.70
2019-01-24T05:37:43.829Z,29.57
2019-01-24T05:40:47.988Z,32.10
2019-01-24T05:43:53.579Z,33.57
2019-01-24T05:46:57.923Z,31.23
2019-01-24T05:50:02.092Z,29.57
2019-01-24T05:53:06.303Z,30.43
2019-01-24T05:56:10.394Z,28.43
2019-01-24T05:59:14.516Z,32.30
2019-01-24T06:02:18.606Z,31.40
2019-01-24T06:05:22.805Z,30.93
2019-01-24T06:08:26.961Z,36.07
2019-01-24T06:11:31.194Z,32.17
2019-01-24T06:14:35.290Z,33.27
2019-01-24T06:17:39.352Z,31.70
2019-01-24T06:20:43.508Z,36.03
2019-01-24T06:23:47.615Z,37.27
2019-01-24T06:26:51.696Z,29.40
2019-01-24T06:29:55.748Z,32.20
2019-01-24T06:32:59.843Z,31.67
2019-01-24T06:36:03.974Z,29.97
2019-01-24T06:39:09.257Z,29.53
2019-01-24T06:42:13.388Z,31.57
2019-01-24T06:45:19.537Z,34.03
2019-01-24T06:48:23.704Z,31.37
2019-01-24T06:51:27.804Z,34.70
2019-01-24T06:54:31.934Z,30.90
2019-01-24T06:57:36.027Z,33.03
2019-01-24T07:00:40.139Z,32.57
2019-01-24T07:03:44.249Z,35.17
2019-01-24T07:06:48.537Z,36.90
2019-01-24T07:09:52.750Z,43.70
2019-01-24T07:12:56.890Z,30.30
2019-01-24T07:16:01.070Z,31.83
2019-01-24T07:19:05.302Z,29.47
2019-01-24T07:22:09.388Z,39.20
2019-01-24T07:25:16.212Z,56.13
2019-01-24T07:28:20.359Z,62.33
2019-01-24T07:31:24.589Z,72.60
2019-01-24T07:34:28.680Z,56.33
2019-01-24T07:37:32.812Z,46.20
2019-01-24T07:40:36.949Z,47.57
2019-01-24T07:43:41.073Z,39.10
2019-01-24T07:46:45.192Z,42.43
2019-01-24T07:49:49.338Z,34.90
2019-01-24T07:52:53.519Z,36.07
2019-01-24T07:55:57.716Z,35.73
2019-01-24T07:59:01.825Z,34.40
2019-01-24T08:02:06.055Z,35.40
2019-01-24T08:05:11.580Z,38.03
2019-01-24T08:08:15.749Z,36.77
2019-01-24T08:11:20.000Z,39.87
2019-01-24T08:14:24.288Z,33.80
2019-01-24T08:17:28.415Z,41.00
2019-01-24T08:20:32.587Z,31.90
2019-01-24T08:23:36.738Z,34.50
2019-01-24T08:26:40.938Z,37.73
2019-01-24T08:29:45.101Z,37.47
2019-01-24T08:32:49.296Z,36.13
2019-01-24T08:35:53.385Z,39.73
2019-01-24T08:38:57.583Z,37.23
2019-01-24T08:42:01.850Z,37.50
2019-01-24T08:45:06.408Z,39.90
2019-01-24T08:48:10.520Z,28.67
2019-01-24T08:51:14.664Z,38.07
2019-01-24T08:54:18.764Z,41.00
2019-01-24T08:57:22.906Z,36.23
2019-01-24T09:00:27.002Z,34.93
2019-01-24T09:03:31.214Z,38.47
2019-01-24T09:06:36.374Z,40.40
2019-01-24T09:09:40.605Z,38.00
2019-01-24T09:12:46.584Z,36.17
2019-01-24T09:15:50.788Z,37.37
2019-01-24T09:18:54.999Z,33.53
2019-01-24T09:21:59.173Z,35.90
2019-01-24T09:25:03.304Z,34.63
2019-01-24T09:28:14.497Z,34.00
2019-01-24T09:31:13.395Z,30.53
2019-01-24T09:34:17.603Z,32.87
2019-01-24T09:37:21.854Z,35.53
2019-01-24T09:40:26.064Z,29.93
2019-01-24T09:43:31.388Z,32.63
2019-01-24T09:46:35.577Z,36.60
2019-01-24T09:49:39.712Z,34.23
2019-01-24T09:52:43.934Z,36.23
2019-01-24T09:55:48.171Z,41.17
2019-01-24T09:58:52.340Z,43.53
2019-01-24T10:01:56.445Z,36.83
2019-01-24T10:05:00.763Z,35.00
2019-01-24T10:08:05.719Z,37.10
2019-01-24T10:11:09.908Z,36.80
2019-01-24T10:14:14.092Z,41.50
2019-01-24T10:17:18.312Z,39.37
2019-01-24T10:20:23.951Z,37.80
2019-01-24T10:23:28.248Z,35.47
2019-01-24T10:26:32.446Z,34.40
2019-01-24T10:29:38.959Z,37.57
2019-01-24T10:32:43.220Z,40.53
2019-01-24T10:35:47.450Z,38.30
2019-01-24T10:38:51.665Z,37.33
2019-01-24T10:41:55.848Z,37.27
2019-01-24T10:44:59.966Z,43.73
2019-01-24T10:48:04.205Z,36.87
2019-01-24T10:51:08.373Z,33.90
2019-01-24T10:54:12.523Z,34.27
2019-01-24T10:57:16.693Z,41.53
2019-01-24T11:00:23.466Z,37.03
2019-01-24T11:03:27.618Z,41.83
2019-01-24T11:06:31.861Z,46.53
2019-01-24T11:09:36.176Z,34.63
2019-01-24T11:12:40.455Z,37.53
2019-01-24T11:15:44.652Z,35.17
2019-01-24T11:18:48.780Z,38.30
2019-01-24T11:21:52.899Z,36.00
2019-01-24T11:24:57.248Z,39.23
2019-01-24T11:28:01.461Z,39.27
2019-01-24T11:31:05.684Z,40.57
2019-01-24T11:34:09.892Z,44.13
2019-01-24T11:37:14.081Z,41.40
2019-01-24T11:40:18.452Z,42.47
2019-01-24T11:43:22.654Z,42.20
2019-01-24T11:46:26.821Z,40.07
2019-01-24T11:49:30.959Z,39.67
2019-01-24T11:52:35.176Z,42.77
2019-01-24T11:55:39.377Z,40.50
2019-01-24T11:58:43.476Z,41.37
2019-01-24T12:01:47.650Z,40.83
2019-01-24T12:04:51.839Z,40.73
2019-01-24T12:07:56.059Z,36.60
2019-01-24T12:11:00.232Z,42.23
2019-01-24T12:14:04.379Z,42.67
2019-01-24T12:17:08.552Z,34.87
2019-01-24T12:20:15.450Z,36.83
2019-01-24T12:23:19.691Z,38.07
2019-01-24T12:26:23.880Z,38.13
2019-01-24T12:29:28.071Z,36.73
2019-01-24T12:32:32.295Z,42.17
2019-01-24T12:35:36.479Z,37.27
2019-01-24T12:38:40.683Z,36.23
2019-01-24T12:41:44.804Z,40.60
2019-01-24T12:44:48.942Z,38.20
2019-01-24T12:47:53.145Z,34.93
2019-01-24T12:50:57.366Z,38.43
2019-01-24T12:54:01.596Z,38.50
2019-01-24T12:57:05.742Z,38.50
2019-01-24T13:00:22.429Z,39.77
2019-01-24T13:03:26.593Z,35.13
2019-01-24T13:06:30.727Z,36.30
2019-01-24T13:09:34.941Z,36.37
2019-01-24T13:12:39.057Z,30.87
2019-01-24T13:15:43.190Z,31.80
2019-01-24T13:18:47.396Z,31.33
2019-01-24T13:21:51.602Z,31.43
2019-01-24T13:24:57.223Z,31.73
2019-01-24T13:28:01.432Z,32.23
2019-01-24T13:31:05.623Z,33.40
2019-01-24T13:34:09.822Z,31.07
2019-01-24T13:37:14.000Z,36.20
2019-01-24T13:40:20.294Z,38.47
2019-01-24T13:43:24.479Z,32.00
2019-01-24T13:46:28.681Z,36.77
2019-01-24T13:49:32.779Z,34.40
2019-01-24T13:52:36.993Z,33.23
2019-01-24T13:55:42.189Z,38.90
2019-01-24T13:58:46.361Z,31.40
2019-01-24T14:01:50.531Z,32.77
2019-01-24T14:04:54.671Z,29.80
2019-01-24T14:07:58.856Z,32.23
2019-01-24T14:11:03.089Z,29.30
2019-01-24T14:14:07.273Z,28.00
2019-01-24T14:17:11.470Z,32.60
2019-01-24T14:20:17.207Z,31.93
2019-01-24T14:23:21.405Z,36.13
2019-01-24T14:26:25.559Z,30.90
2019-01-24T14:29:29.795Z,34.47
2019-01-24T14:32:33.968Z,30.57
2019-01-24T14:35:39.653Z,44.13
2019-01-24T14:38:43.896Z,35.63
2019-01-24T14:41:48.092Z,44.00
2019-01-24T14:44:52.204Z,39.50
2019-01-24T14:47:56.431Z,36.77
2019-01-24T14:51:00.616Z,35.00
2019-01-24T14:54:04.948Z,37.40
2019-01-24T14:57:09.119Z,35.90
2019-01-24T15:00:25.743Z,39.57
2019-01-24T15:03:29.938Z,35.80
2019-01-24T15:06:34.141Z,36.30
2019-01-24T15:09:38.286Z,40.37
2019-01-24T15:12:42.487Z,42.40
2019-01-24T15:15:46.680Z,40.73
2019-01-24T15:18:50.900Z,42.10
2019-01-24T15:21:55.049Z,53.10
2019-01-24T15:24:59.406Z,57.60
2019-01-24T15:28:03.622Z,56.57
2019-01-24T15:31:07.833Z,54.47
2019-01-24T15:34:11.938Z,57.10
2019-01-24T15:37:16.253Z,70.97
2019-01-24T15:40:22.753Z,74.70
2019-01-24T15:43:26.960Z,81.00
2019-01-24T15:46:31.257Z,72.50
2019-01-24T15:49:35.377Z,83.70
2019-01-24T15:52:39.545Z,109.40
2019-01-24T15:55:43.772Z,118.73
2019-01-24T15:58:47.990Z,95.47
2019-01-24T16:01:52.220Z,99.77
2019-01-24T16:04:58.612Z,83.80
2019-01-24T16:08:02.833Z,72.23
2019-01-24T16:11:07.016Z,55.60
2019-01-24T16:14:11.230Z,59.30
2019-01-24T16:17:16.517Z,47.80
2019-01-24T16:20:21.893Z,51.83
2019-01-24T16:23:26.123Z,44.07
2019-01-24T16:26:32.191Z,53.40
2019-01-24T16:29:36.314Z,54.50
2019-01-24T16:32:40.554Z,53.43
2019-01-24T16:35:44.712Z,48.87
2019-01-24T16:38:48.853Z,48.93
2019-01-24T16:41:53.040Z,43.83
2019-01-24T16:44:57.270Z,41.00
2019-01-24T16:48:01.452Z,36.80
2019-01-24T16:51:05.695Z,35.63
2019-01-24T16:54:09.870Z,43.67
2019-01-24T16:57:14.002Z,37.87
2019-01-24T17:00:35.908Z,40.60
2019-01-24T17:03:41.281Z,39.27
2019-01-24T17:06:45.421Z,38.23
2019-01-24T17:09:49.588Z,41.17
2019-01-24T17:12:53.808Z,45.43
2019-01-24T17:15:58.061Z,38.47
2019-01-24T17:19:02.251Z,39.40
2019-01-24T17:22:06.512Z,33.50
2019-01-24T17:25:11.459Z,38.20
2019-01-24T17:28:15.710Z,36.93
2019-01-24T17:31:20.078Z,45.33
2019-01-24T17:34:24.286Z,46.93
2019-01-24T17:37:29.106Z,43.03
2019-01-24T17:40:33.371Z,45.67
2019-01-24T17:43:40.618Z,40.90
2019-01-24T17:46:44.802Z,41.53
2019-01-24T17:49:49.016Z,43.77
2019-01-24T17:52:53.434Z,42.03
2019-01-24T17:55:57.666Z,42.77
2019-01-24T17:59:01.930Z,41.47
2019-01-24T18:02:06.220Z,47.77
2019-01-24T18:05:10.564Z,45.53
2019-01-24T18:08:15.259Z,40.47
2019-01-24T18:11:19.496Z,44.50
2019-01-24T18:14:23.716Z,45.53
2019-01-24T18:17:27.934Z,50.63
2019-01-24T18:20:33.292Z,52.57
2019-01-24T18:23:37.623Z,46.63
2019-01-24T18:26:42.173Z,49.13
2019-01-24T18:29:46.653Z,49.40
2019-01-24T18:32:50.898Z,51.27
2019-01-24T18:35:55.200Z,52.47
2019-01-24T18:39:00.924Z,50.90
2019-01-24T18:42:05.344Z,44.83
2019-01-24T18:45:12.232Z,48.17
2019-01-24T18:48:19.017Z,44.77
2019-01-24T18:51:23.852Z,47.67
2019-01-24T18:54:28.308Z,52.43
2019-01-24T18:57:32.543Z,47.77
2019-01-24T19:00:39.307Z,56.30
2019-01-24T19:03:43.532Z,53.03
2019-01-24T19:06:47.826Z,52.27
2019-01-24T19:09:51.951Z,53.10
2019-01-24T19:12:56.278Z,54.17
2019-01-24T19:16:00.484Z,52.93
2019-01-24T19:19:05.000Z,50.27
2019-01-24T19:22:09.314Z,52.17
2019-01-24T19:25:13.914Z,44.63
2019-01-24T19:28:19.064Z,41.90
2019-01-24T19:31:23.340Z,50.33
2019-01-24T19:34:27.476Z,45.83
2019-01-24T19:37:33.267Z,62.97
2019-01-24T19:40:37.496Z,80.17
2019-01-24T19:43:41.777Z,95.77
2019-01-24T19:46:46.261Z,87.17
2019-01-24T19:49:50.552Z,87.73
2019-01-24T19:52:54.917Z,70.80
2019-01-24T19:55:59.195Z,72.07
2019-01-24T19:59:03.404Z,75.57
2019-01-24T20:02:08.576Z,72.43
2019-01-24T20:05:13.043Z,67.93
2019-01-24T20:08:17.389Z,66.97
2019-01-24T20:11:21.606Z,78.13
2019-01-24T20:14:25.785Z,69.07
2019-01-24T20:17:30.004Z,75.87
2019-01-24T20:20:34.177Z,65.43
2019-01-24T20:23:38.521Z,57.60
2019-01-24T20:26:42.982Z,60.27
2019-01-24T20:29:47.151Z,54.07
2019-01-24T20:32:51.349Z,48.70
2019-01-24T20:35:58.025Z,51.27
2019-01-24T20:39:07.317Z,43.83
2019-01-24T20:42:08.276Z,50.57
2019-01-24T20:45:12.870Z,46.93
2019-01-24T20:48:17.078Z,44.07
2019-01-24T20:51:21.307Z,41.30
2019-01-24T20:54:25.571Z,41.50
2019-01-24T20:57:29.951Z,45.47
2019-01-24T21:00:34.468Z,40.33
2019-01-24T21:03:38.716Z,44.30
2019-01-24T21:06:42.948Z,43.47
2019-01-24T21:09:47.095Z,44.93
2019-01-24T21:12:51.290Z,47.87
2019-01-24T21:15:56.865Z,45.60
2019-01-24T21:19:00.993Z,43.37
2019-01-24T21:22:05.303Z,47.13
2019-01-24T21:25:10.930Z,41.00
2019-01-24T21:28:15.169Z,47.87
2019-01-24T21:31:19.273Z,51.00
2019-01-24T21:34:23.616Z,50.07
2019-01-24T21:37:27.806Z,43.30
2019-01-24T21:40:32.049Z,48.57
2019-01-24T21:43:36.219Z,55.33
2019-01-24T21:46:40.564Z,52.63
2019-01-24T21:49:44.772Z,52.40
2019-01-24T21:52:49.045Z,50.17
2019-01-24T21:55:53.170Z,53.77
2019-01-24T21:58:59.846Z,60.77
2019-01-24T22:02:04.046Z,56.43
2019-01-24T22:05:08.840Z,56.03
2019-01-24T22:08:13.062Z,56.93
2019-01-24T22:11:17.561Z,61.37
2019-01-24T22:14:21.725Z,58.00
2019-01-24T22:17:25.880Z,52.87
2019-01-24T22:20:29.974Z,50.70
2019-01-24T22:23:34.147Z,46.83
2019-01-24T22:26:38.263Z,50.33
2019-01-24T22:29:42.511Z,51.93
2019-01-24T22:32:46.696Z,37.17
2019-01-24T22:35:51.004Z,47.40
2019-01-24T22:38:55.248Z,41.90
2019-01-24T22:41:59.405Z,48.23
2019-01-24T22:45:03.519Z,42.40
2019-01-24T22:48:07.758Z,46.43
2019-01-24T22:51:11.948Z,44.97
2019-01-24T22:54:16.161Z,47.00
2019-01-24T22:57:20.340Z,45.43
2019-01-24T23:00:48.559Z,42.33
2019-01-24T23:04:00.607Z,43.83
2019-01-24T23:07:04.741Z,49.27
2019-01-24T23:10:09.028Z,50.33
2019-01-24T23:13:13.159Z,46.37
2019-01-24T23:16:17.265Z,46.87
2019-01-24T23:19:21.472Z,39.90
2019-01-24T23:22:25.605Z,46.70
2019-01-24T23:25:29.856Z,49.60
2019-01-24T23:28:33.996Z,40.07
2019-01-24T23:31:38.118Z,42.03
2019-01-24T23:34:42.241Z,40.13
2019-01-24T23:37:52.341Z,43.27
2019-01-24T23:40:52.304Z,43.47
2019-01-24T23:43:56.461Z,39.63
2019-01-24T23:47:00.668Z,38.63
2019-01-24T23:50:05.228Z,40.30
2019-01-24T23:53:09.352Z,38.63
2019-01-24T23:56:13.532Z,36.10
2019-01-24T23:59:17.628Z,44.90
